Plattenville, LA (70393)

3:03 PM CDT on July 24, 2016 (GMT -0500)
plattenville | | Change Station

Elev 23 ft 29.96 °N, 91.02 °W | Updated 12 minutes ago

Heavy Rain
Heavy Rain
77.3 °F
Feels Like 79 °F
N
4.2
Wind Variable Wind from SSW

Today
High -- | Low -- °F
--% Chance of Precip.
Yesterday
High -- | Low -- °F
Precip. -- in
Pressure 29.96 in
Visibility 2.0 miles
Clouds Scattered Clouds 900 ft
Mostly Cloudy 1600 ft
Overcast 3200 ft
Heat Index 79 °F
Dew Point 70 °F
Humidity 79%
Rainfall 0.00 in
Snow Depth Not available.
6:18 AM 8:02 PM
Waning Gibbous, 73% visible
METAR KL38 241955Z AUTO 25006KT 2SM +RA SCT009 BKN016 OVC032 24/23 A2996 RMK AO2 LTG DSNT ALQS T02390229
Pressure 29.96 in
Visibility 2.0 miles
Clouds Scattered Clouds 900 ft
Mostly Cloudy 1600 ft
Overcast 3200 ft
Heat Index 79 °F
Dew Point 70 °F
Humidity 79%
Rainfall 0.00 in
Snow Depth Not available.
6:18 AM 8:02 PM
Waning Gibbous, 73% visible
METAR KL38 241955Z AUTO 25006KT 2SM +RA SCT009 BKN016 OVC032 24/23 A2996 RMK AO2 LTG DSNT ALQS T02390229

10-Day Weather Forecast

Almanac

Astronomy

Jul. 24, 2016 Rise Set
Actual Time
Civil Twilight
Nautical Twilight
Astronomical Twilight
Moon
Length of Visible Light
Length of Day
Tomorrow will be .
, % of the Moon is Illuminated

Today's Extremes

State Highs State Lows

Community

WunderPhotos

Upload Photos

1,927,178 photos uploaded!

WunderBlog® & News

Nearby

Air Quality

  Air Quality AQ Index Pollutant
Not available.

Snow Depth

Station Depth Elevation

Earthquake Activity

City Distance Mag. Time & Date
Minimum magnitude displayed is 2.5.

Coastal Water Temperatures

Place Temperature

Stations

Nearby Weather Stations

Station Location Temp. Windchill Dew Point Humidity Wind Precip. Elev Updated Type
                   

Watches & Warnings

There are currently no watches in effect.